createdAt,value
2018-10-06T00:00:36.960Z,4.40
2018-10-06T00:01:37.018Z,4.40
2018-10-06T00:02:37.080Z,4.40
2018-10-06T00:03:37.135Z,4.50
2018-10-06T00:04:37.193Z,4.80
2018-10-06T00:05:37.251Z,4.50
2018-10-06T00:06:37.311Z,4.30
2018-10-06T00:07:37.369Z,4.40
2018-10-06T00:08:37.426Z,4.50
2018-10-06T00:09:37.485Z,4.30
2018-10-06T00:10:37.544Z,4.40
2018-10-06T00:11:37.603Z,4.40
2018-10-06T00:12:37.661Z,4.20
2018-10-06T00:13:37.720Z,4.60
2018-10-06T00:14:37.779Z,4.10
2018-10-06T00:15:37.837Z,4.30
2018-10-06T00:16:37.894Z,4.70
2018-10-06T00:17:37.952Z,4.20
2018-10-06T00:18:38.012Z,4.40
2018-10-06T00:19:38.070Z,4.10
2018-10-06T00:20:38.127Z,4.50
2018-10-06T00:21:38.185Z,4.20
2018-10-06T00:22:38.245Z,4.60
2018-10-06T00:23:38.303Z,4.40
2018-10-06T00:24:38.362Z,4.10
2018-10-06T00:25:38.418Z,4.60
2018-10-06T00:26:38.481Z,3.90
2018-10-06T00:27:38.536Z,4.60
2018-10-06T00:28:38.594Z,4.50
2018-10-06T00:29:38.654Z,4.30
2018-10-06T00:30:38.711Z,4.20
2018-10-06T00:31:38.770Z,4.40
2018-10-06T00:32:38.829Z,4.50
2018-10-06T00:33:38.887Z,4.00
2018-10-06T00:34:38.945Z,4.40
2018-10-06T00:35:39.003Z,4.40
2018-10-06T00:36:39.060Z,3.90
2018-10-06T00:37:39.119Z,4.10
2018-10-06T00:38:39.177Z,4.20
2018-10-06T00:39:39.236Z,4.10
2018-10-06T00:40:39.294Z,4.50
2018-10-06T00:41:39.352Z,4.30
2018-10-06T00:42:39.410Z,4.10
2018-10-06T00:43:39.470Z,4.90
2018-10-06T00:44:39.527Z,4.60
2018-10-06T00:45:39.585Z,4.70
2018-10-06T00:46:39.644Z,4.30
2018-10-06T00:47:39.703Z,4.40
2018-10-06T00:48:39.760Z,4.40
2018-10-06T00:49:39.817Z,4.50
2018-10-06T00:50:39.875Z,5.10
2018-10-06T00:51:39.936Z,4.50
2018-10-06T00:52:39.993Z,4.40
2018-10-06T00:53:40.050Z,4.80
2018-10-06T00:54:40.109Z,4.40
2018-10-06T00:55:40.168Z,4.20
2018-10-06T00:56:40.229Z,4.30
2018-10-06T00:57:40.282Z,4.40
2018-10-06T00:58:40.342Z,4.20
2018-10-06T00:59:40.404Z,4.40
2018-10-06T01:00:40.457Z,4.40
2018-10-06T01:01:40.518Z,4.40
2018-10-06T01:02:40.575Z,4.40
2018-10-06T01:03:40.633Z,4.40
2018-10-06T01:04:40.692Z,4.70
2018-10-06T01:05:40.749Z,4.30
2018-10-06T01:06:40.806Z,4.30
2018-10-06T01:07:40.865Z,4.70
2018-10-06T01:08:40.923Z,4.70
2018-10-06T01:09:40.982Z,4.40
2018-10-06T01:10:41.043Z,4.60
2018-10-06T01:11:41.103Z,4.40
2018-10-06T01:12:41.155Z,4.50
2018-10-06T01:13:41.214Z,4.50
2018-10-06T01:14:41.272Z,4.20
2018-10-06T01:15:41.334Z,4.50
2018-10-06T01:16:41.387Z,4.40
2018-10-06T01:17:41.447Z,4.20
2018-10-06T01:18:41.505Z,4.50
2018-10-06T01:19:41.565Z,4.70
2018-10-06T01:20:41.619Z,5.00
2018-10-06T01:21:41.680Z,4.60
2018-10-06T01:22:41.737Z,4.60
2018-10-06T01:23:41.796Z,4.60
2018-10-06T01:24:41.852Z,4.90
2018-10-06T01:25:41.912Z,4.40
2018-10-06T01:26:41.970Z,4.70
2018-10-06T01:27:42.028Z,4.70
2018-10-06T01:28:42.086Z,4.20
2018-10-06T01:29:42.146Z,4.50
2018-10-06T01:30:42.203Z,4.10
2018-10-06T01:31:42.264Z,4.80
2018-10-06T01:32:42.318Z,4.30
2018-10-06T01:33:42.377Z,4.30
2018-10-06T01:34:42.437Z,4.50
2018-10-06T01:35:42.493Z,4.60
2018-10-06T01:36:42.551Z,4.80
2018-10-06T01:37:42.610Z,4.70
2018-10-06T01:38:42.667Z,4.30
2018-10-06T01:39:42.733Z,4.50
2018-10-06T01:40:42.786Z,4.70
2018-10-06T01:41:42.840Z,4.60
2018-10-06T01:42:42.900Z,5.00
2018-10-06T01:43:42.958Z,4.50
2018-10-06T01:44:43.021Z,4.90
2018-10-06T01:45:43.074Z,5.10
2018-10-06T01:46:43.132Z,4.50
2018-10-06T01:47:43.190Z,4.50
2018-10-06T01:48:43.248Z,4.20
2018-10-06T01:49:43.363Z,4.00
2018-10-06T01:50:43.365Z,4.30
2018-10-06T01:51:43.423Z,4.30
2018-10-06T01:52:43.480Z,4.20
2018-10-06T01:53:43.539Z,4.30
2018-10-06T01:54:43.596Z,4.30
2018-10-06T01:55:43.655Z,4.80
2018-10-06T01:56:43.713Z,4.70
2018-10-06T01:57:43.770Z,4.70
2018-10-06T01:58:43.829Z,4.50
2018-10-06T01:59:43.887Z,4.50
2018-10-06T02:00:43.944Z,4.80
2018-10-06T02:01:44.002Z,5.20
2018-10-06T02:02:44.061Z,5.10
2018-10-06T02:03:44.121Z,4.70
2018-10-06T02:04:44.176Z,4.80
2018-10-06T02:05:44.236Z,5.80
2018-10-06T02:06:44.293Z,6.50
2018-10-06T02:07:44.351Z,4.90
2018-10-06T02:08:44.408Z,4.80
2018-10-06T02:09:44.470Z,4.90
2018-10-06T02:10:44.525Z,5.40
2018-10-06T02:11:44.584Z,4.80
2018-10-06T02:12:44.641Z,5.10
2018-10-06T02:13:44.700Z,4.80
2018-10-06T02:14:44.758Z,4.50
2018-10-06T02:15:44.816Z,5.40
2018-10-06T02:16:44.878Z,4.80
2018-10-06T02:17:44.932Z,4.80
2018-10-06T02:18:44.992Z,5.00
2018-10-06T02:19:45.048Z,5.40
2018-10-06T02:20:45.106Z,5.50
2018-10-06T02:21:45.165Z,5.40
2018-10-06T02:22:45.223Z,5.30
2018-10-06T02:23:45.281Z,6.10
2018-10-06T02:24:45.338Z,5.40
2018-10-06T02:25:45.397Z,5.40
2018-10-06T02:26:45.459Z,5.00
2018-10-06T02:27:45.515Z,5.00
2018-10-06T02:28:45.572Z,5.70
2018-10-06T02:29:45.631Z,6.60
2018-10-06T02:30:45.689Z,5.90
2018-10-06T02:31:45.748Z,5.30
2018-10-06T02:32:46.055Z,4.80
2018-10-06T02:33:45.864Z,5.20
2018-10-06T02:34:45.920Z,4.50
2018-10-06T02:35:45.981Z,5.50
2018-10-06T02:36:46.053Z,5.60
2018-10-06T02:37:46.246Z,5.90
2018-10-06T02:38:46.154Z,5.60
2018-10-06T02:39:46.212Z,5.10
2018-10-06T02:40:46.270Z,5.60
2018-10-06T02:41:46.329Z,5.70
2018-10-06T02:42:46.387Z,4.90
2018-10-06T02:43:46.446Z,5.20
2018-10-06T02:44:46.504Z,4.60
2018-10-06T02:45:46.561Z,5.20
2018-10-06T02:46:46.620Z,4.60
2018-10-06T02:47:46.775Z,4.70
2018-10-06T02:48:46.774Z,4.80
2018-10-06T02:49:47.204Z,4.60
2018-10-06T02:50:46.892Z,5.10
2018-10-06T02:51:47.306Z,5.40
2018-10-06T02:52:47.314Z,5.40
2018-10-06T02:53:47.030Z,5.10
2018-10-06T02:54:47.086Z,4.70
2018-10-06T02:55:47.151Z,5.20
2018-10-06T02:56:47.247Z,5.80
2018-10-06T02:57:47.261Z,5.00
2018-10-06T02:58:47.320Z,5.30
2018-10-06T02:59:47.775Z,5.50
2018-10-06T03:00:47.435Z,5.70
2018-10-06T03:01:47.897Z,5.40
2018-10-06T03:02:47.599Z,5.30
2018-10-06T03:03:47.716Z,5.10
2018-10-06T03:04:48.420Z,6.10
2018-10-06T03:05:48.163Z,6.70
2018-10-06T03:06:47.789Z,7.30
2018-10-06T03:07:47.895Z,7.40
2018-10-06T03:08:47.902Z,6.60
2018-10-06T03:09:47.964Z,6.30
2018-10-06T03:10:48.019Z,9.20
2018-10-06T03:11:48.077Z,11.20
2018-10-06T03:12:48.136Z,7.30
2018-10-06T03:13:48.443Z,5.90
2018-10-06T03:14:48.252Z,6.30
2018-10-06T03:15:48.311Z,5.30
2018-10-06T03:16:48.378Z,5.30
2018-10-06T03:17:48.436Z,5.00
2018-10-06T03:18:48.485Z,5.00
2018-10-06T03:19:48.544Z,5.60
2018-10-06T03:20:48.601Z,4.50
2018-10-06T03:21:48.660Z,5.30
2018-10-06T03:22:48.720Z,5.20
2018-10-06T03:23:48.777Z,5.40
2018-10-06T03:24:48.834Z,5.00
2018-10-06T03:25:48.902Z,4.80
2018-10-06T03:26:48.952Z,5.40
2018-10-06T03:27:49.009Z,5.00
2018-10-06T03:28:49.072Z,5.00
2018-10-06T03:29:49.128Z,4.70
2018-10-06T03:30:49.186Z,5.10
2018-10-06T03:31:49.251Z,5.00
2018-10-06T03:32:49.303Z,8.70
2018-10-06T03:33:49.366Z,6.20
2018-10-06T03:34:49.418Z,7.40
2018-10-06T03:35:49.479Z,5.50
2018-10-06T03:36:49.535Z,5.10
2018-10-06T03:37:49.592Z,4.90
2018-10-06T03:38:49.653Z,5.10
2018-10-06T03:39:49.712Z,4.90
2018-10-06T03:40:49.767Z,4.80
2018-10-06T03:41:49.824Z,4.80
2018-10-06T03:42:49.887Z,4.70
2018-10-06T03:43:49.942Z,4.70
2018-10-06T03:44:50.028Z,4.30
2018-10-06T03:45:50.063Z,4.50
2018-10-06T03:46:50.117Z,4.40
2018-10-06T03:47:50.195Z,4.30
2018-10-06T03:48:50.234Z,4.60
2018-10-06T03:49:50.292Z,4.60
2018-10-06T03:50:50.351Z,4.60
2018-10-06T03:51:50.408Z,4.30
2018-10-06T03:52:50.467Z,4.10
2018-10-06T03:53:50.575Z,4.40
2018-10-06T03:54:50.585Z,4.00
2018-10-06T03:55:50.642Z,4.40
2018-10-06T03:56:50.701Z,4.60
2018-10-06T03:57:50.759Z,4.40
2018-10-06T03:58:50.818Z,5.20
2018-10-06T03:59:50.875Z,4.70
2018-10-06T04:00:50.933Z,5.00
2018-10-06T04:01:50.991Z,4.80
2018-10-06T04:02:51.050Z,4.00
2018-10-06T04:03:51.108Z,4.60
2018-10-06T04:04:51.168Z,4.90
2018-10-06T04:05:51.225Z,4.40
2018-10-06T04:06:51.284Z,5.20
2018-10-06T04:07:51.341Z,4.60
2018-10-06T04:08:51.398Z,4.50
2018-10-06T04:09:51.460Z,4.90
2018-10-06T04:10:51.515Z,4.20
2018-10-06T04:11:51.573Z,4.50
2018-10-06T04:12:51.631Z,5.40
2018-10-06T04:13:51.696Z,4.70
2018-10-06T04:14:51.748Z,4.50
2018-10-06T04:15:51.808Z,4.50
2018-10-06T04:16:51.864Z,4.70
2018-10-06T04:17:51.940Z,5.10
2018-10-06T04:18:51.981Z,5.30
2018-10-06T04:19:52.042Z,5.50
2018-10-06T04:20:52.097Z,5.20
2018-10-06T04:21:52.181Z,6.40
2018-10-06T04:22:52.216Z,5.30
2018-10-06T04:23:52.603Z,4.80
2018-10-06T04:24:52.330Z,5.00
2018-10-06T04:25:52.389Z,5.40
2018-10-06T04:26:52.449Z,5.40
2018-10-06T04:27:52.505Z,5.30
2018-10-06T04:28:52.563Z,5.60
2018-10-06T04:29:52.620Z,5.50
2018-10-06T04:30:52.679Z,5.50
2018-10-06T04:31:52.737Z,5.40
2018-10-06T04:32:52.795Z,5.30
2018-10-06T04:33:52.854Z,4.30
2018-10-06T04:34:52.920Z,5.40
2018-10-06T04:35:52.971Z,5.50
2018-10-06T04:36:53.029Z,5.00
2018-10-06T04:37:53.087Z,4.80
2018-10-06T04:38:53.144Z,5.30
2018-10-06T04:39:53.206Z,4.90
2018-10-06T04:40:53.260Z,5.20
2018-10-06T04:41:53.319Z,5.50
2018-10-06T04:42:53.378Z,5.10
2018-10-06T04:43:53.455Z,5.40
2018-10-06T04:44:53.493Z,5.10
2018-10-06T04:45:53.551Z,4.70
2018-10-06T04:46:53.636Z,4.70
2018-10-06T04:47:53.669Z,4.80
2018-10-06T04:48:53.724Z,5.40
2018-10-06T04:49:53.783Z,5.90
2018-10-06T04:50:53.861Z,5.10
2018-10-06T04:51:53.900Z,5.10
2018-10-06T04:52:53.959Z,5.80
2018-10-06T04:53:54.016Z,8.10
2018-10-06T04:54:54.074Z,6.00
2018-10-06T04:55:54.133Z,5.80
2018-10-06T04:56:54.189Z,5.70
2018-10-06T04:57:54.248Z,6.50
2018-10-06T04:58:54.305Z,5.60
2018-10-06T04:59:54.364Z,6.30
2018-10-06T05:00:54.422Z,5.70
2018-10-06T05:01:54.481Z,5.60
2018-10-06T05:02:54.537Z,5.80
2018-10-06T05:03:54.597Z,5.60
2018-10-06T05:04:54.653Z,5.20
2018-10-06T05:05:54.712Z,5.20
2018-10-06T05:06:54.769Z,5.00
2018-10-06T05:07:54.829Z,5.20
2018-10-06T05:08:54.885Z,5.50
2018-10-06T05:09:54.944Z,4.80
2018-10-06T05:10:55.024Z,5.10
2018-10-06T05:11:55.059Z,5.00
2018-10-06T05:12:55.117Z,5.20
2018-10-06T05:13:55.175Z,4.90
2018-10-06T05:14:55.234Z,5.00
2018-10-06T05:15:55.292Z,4.60
2018-10-06T05:16:55.348Z,4.80
2018-10-06T05:17:55.407Z,4.60
2018-10-06T05:18:55.465Z,4.50
2018-10-06T05:19:55.522Z,4.90
2018-10-06T05:20:55.581Z,5.40
2018-10-06T05:21:55.649Z,5.20
2018-10-06T05:22:55.697Z,5.00
2018-10-06T05:23:55.755Z,6.60
2018-10-06T05:24:55.815Z,5.20
2018-10-06T05:25:56.247Z,4.80
2018-10-06T05:26:55.928Z,4.90
2018-10-06T05:27:55.986Z,5.10
2018-10-06T05:28:56.045Z,4.90
2018-10-06T05:29:56.102Z,4.80
2018-10-06T05:30:56.160Z,4.60
2018-10-06T05:31:56.216Z,4.90
2018-10-06T05:32:56.277Z,4.50
2018-10-06T05:33:56.373Z,5.20
2018-10-06T05:34:56.391Z,5.10
2018-10-06T05:35:56.448Z,4.70
2018-10-06T05:36:56.506Z,5.30
2018-10-06T05:37:56.564Z,5.30
2018-10-06T05:38:56.622Z,5.00
2018-10-06T05:39:56.681Z,4.60
2018-10-06T05:40:56.739Z,5.20
2018-10-06T05:41:56.796Z,4.40
2018-10-06T05:42:56.858Z,4.90
2018-10-06T05:43:56.912Z,4.60
2018-10-06T05:44:56.969Z,5.30
2018-10-06T05:45:57.031Z,4.80
2018-10-06T05:46:57.085Z,5.60
2018-10-06T05:47:57.144Z,5.40
2018-10-06T05:48:57.204Z,4.60
2018-10-06T05:49:57.260Z,4.60
2018-10-06T05:50:57.320Z,5.30
2018-10-06T05:51:57.378Z,5.20
2018-10-06T05:52:57.434Z,5.80
2018-10-06T05:53:57.492Z,6.20
2018-10-06T05:54:57.550Z,5.20
2018-10-06T05:55:57.607Z,4.80
2018-10-06T05:56:57.664Z,4.60
2018-10-06T05:57:57.723Z,4.90
2018-10-06T05:58:57.828Z,5.30
2018-10-06T05:59:57.840Z,4.40
2018-10-06T06:00:57.897Z,4.90
2018-10-06T06:01:57.955Z,4.70
2018-10-06T06:02:58.015Z,4.80
2018-10-06T06:03:58.072Z,5.70
2018-10-06T06:04:58.129Z,5.80
2018-10-06T06:05:58.188Z,5.20
2018-10-06T06:06:58.246Z,6.20
2018-10-06T06:07:58.311Z,5.60
2018-10-06T06:08:58.361Z,5.50
2018-10-06T06:09:58.505Z,5.30
2018-10-06T06:10:58.629Z,5.60
2018-10-06T06:11:58.537Z,5.10
2018-10-06T06:12:58.594Z,5.20
2018-10-06T06:13:58.668Z,5.90
2018-10-06T06:14:58.711Z,6.40
2018-10-06T06:15:58.769Z,5.70
2018-10-06T06:16:58.826Z,5.60
2018-10-06T06:17:58.884Z,5.20
2018-10-06T06:18:58.946Z,5.60
2018-10-06T06:19:59.001Z,5.40
2018-10-06T06:20:59.079Z,4.80
2018-10-06T06:21:59.128Z,5.20
2018-10-06T06:22:59.175Z,4.80
2018-10-06T06:23:59.357Z,5.30
2018-10-06T06:24:59.338Z,5.70
2018-10-06T06:25:59.351Z,5.40
2018-10-06T06:26:59.409Z,6.60
2018-10-06T06:27:59.465Z,5.00
2018-10-06T06:28:59.533Z,7.30
2018-10-06T06:29:59.581Z,6.00
2018-10-06T06:30:59.640Z,5.50
2018-10-06T06:31:59.698Z,5.50
2018-10-06T06:32:59.755Z,6.00
2018-10-06T06:33:59.813Z,5.90
2018-10-06T06:34:59.873Z,6.40
2018-10-06T06:35:59.931Z,7.60
2018-10-06T06:36:59.988Z,5.30
2018-10-06T06:38:00.047Z,5.30
2018-10-06T06:39:00.106Z,5.70
2018-10-06T06:40:00.163Z,5.60
2018-10-06T06:41:00.222Z,5.00
2018-10-06T06:42:00.280Z,5.30
2018-10-06T06:43:00.338Z,5.50
2018-10-06T06:44:00.480Z,6.20
2018-10-06T06:45:00.455Z,6.60
2018-10-06T06:46:00.513Z,6.80
2018-10-06T06:47:00.588Z,5.80
2018-10-06T06:48:00.630Z,6.00
2018-10-06T06:49:00.687Z,5.60
2018-10-06T06:50:00.745Z,6.10
2018-10-06T06:51:01.055Z,6.70
2018-10-06T06:52:00.863Z,6.70
2018-10-06T06:53:00.938Z,5.60
2018-10-06T06:54:00.980Z,6.10
2018-10-06T06:55:01.074Z,6.20
2018-10-06T06:56:01.098Z,5.80
2018-10-06T06:57:01.154Z,5.60
2018-10-06T06:58:01.215Z,5.00
2018-10-06T06:59:01.271Z,6.00
2018-10-06T07:00:01.332Z,5.00
2018-10-06T07:01:01.425Z,5.70
2018-10-06T07:02:01.447Z,6.50
2018-10-06T07:03:01.507Z,5.40
2018-10-06T07:04:01.564Z,5.90
2018-10-06T07:05:01.622Z,5.40
2018-10-06T07:06:01.679Z,5.50
2018-10-06T07:07:01.738Z,5.60
2018-10-06T07:08:01.797Z,5.60
2018-10-06T07:09:01.853Z,5.70
2018-10-06T07:10:01.913Z,5.30
2018-10-06T07:11:01.974Z,4.80
2018-10-06T07:12:02.031Z,5.40
2018-10-06T07:13:02.088Z,6.20
2018-10-06T07:14:02.145Z,5.60
2018-10-06T07:15:02.205Z,5.40
2018-10-06T07:16:02.262Z,5.50
2018-10-06T07:17:02.322Z,5.20
2018-10-06T07:18:02.380Z,6.10
2018-10-06T07:19:02.441Z,6.00
2018-10-06T07:20:02.498Z,5.40
2018-10-06T07:21:02.555Z,5.40
2018-10-06T07:22:02.614Z,5.80
2018-10-06T07:23:02.673Z,5.90
2018-10-06T07:24:02.732Z,5.70
2018-10-06T07:25:02.792Z,5.20
2018-10-06T07:26:02.848Z,5.50
2018-10-06T07:27:02.907Z,5.70
2018-10-06T07:28:02.966Z,5.50
2018-10-06T07:29:03.029Z,5.50
2018-10-06T07:30:03.083Z,5.80
2018-10-06T07:31:03.141Z,6.00
2018-10-06T07:32:03.201Z,5.80
2018-10-06T07:33:03.262Z,5.50
2018-10-06T07:34:03.319Z,5.60
2018-10-06T07:35:03.380Z,6.00
2018-10-06T07:36:03.437Z,5.40
2018-10-06T07:37:03.496Z,5.00
2018-10-06T07:38:03.554Z,5.20
2018-10-06T07:39:03.615Z,5.50
2018-10-06T07:40:03.673Z,5.40
2018-10-06T07:41:03.731Z,5.70
2018-10-06T07:42:03.791Z,5.00
2018-10-06T07:43:03.850Z,5.20
2018-10-06T07:44:03.909Z,5.20
2018-10-06T07:45:04.040Z,5.40
2018-10-06T07:46:04.033Z,5.30
2018-10-06T07:47:04.100Z,4.90
2018-10-06T07:48:04.146Z,4.90
2018-10-06T07:49:04.204Z,5.00
2018-10-06T07:50:04.263Z,5.00
2018-10-06T07:51:04.323Z,4.90
2018-10-06T07:52:04.633Z,5.10
2018-10-06T07:53:04.476Z,4.90
2018-10-06T07:54:04.503Z,5.70
2018-10-06T07:55:04.560Z,4.90
2018-10-06T07:56:04.620Z,5.30
2018-10-06T07:57:04.678Z,5.10
2018-10-06T07:58:04.738Z,5.80
2018-10-06T07:59:04.801Z,4.90
2018-10-06T08:00:04.856Z,5.40
2018-10-06T08:01:04.914Z,5.60
2018-10-06T08:02:04.976Z,5.10
2018-10-06T08:03:05.037Z,5.80
2018-10-06T08:04:05.093Z,5.50
2018-10-06T08:05:05.152Z,5.60
2018-10-06T08:06:05.260Z,5.60
2018-10-06T08:07:05.270Z,5.20
2018-10-06T08:08:05.331Z,5.60
2018-10-06T08:09:05.389Z,5.40
2018-10-06T08:10:05.449Z,5.00
2018-10-06T08:11:05.511Z,5.10
2018-10-06T08:12:05.568Z,4.90
2018-10-06T08:13:05.628Z,5.10
2018-10-06T08:14:05.686Z,5.00
2018-10-06T08:15:05.745Z,5.00
2018-10-06T08:16:05.806Z,5.10
2018-10-06T08:17:05.866Z,5.10
2018-10-06T08:18:05.923Z,5.20
2018-10-06T08:19:05.982Z,5.10
2018-10-06T08:20:06.042Z,5.00
2018-10-06T08:21:06.100Z,4.80
2018-10-06T08:22:06.161Z,5.10
2018-10-06T08:23:06.220Z,5.40
2018-10-06T08:24:06.280Z,5.60
2018-10-06T08:25:06.339Z,5.40
2018-10-06T08:26:06.397Z,5.20
2018-10-06T08:27:06.461Z,5.30
2018-10-06T08:28:06.524Z,5.40
2018-10-06T08:29:06.576Z,5.40
2018-10-06T08:30:06.637Z,5.30
2018-10-06T08:31:06.704Z,5.50
2018-10-06T08:32:06.755Z,5.60
2018-10-06T08:33:06.815Z,5.40
2018-10-06T08:34:06.874Z,5.30
2018-10-06T08:35:06.936Z,4.90
2018-10-06T08:36:06.994Z,4.90
2018-10-06T08:37:07.053Z,5.40
2018-10-06T08:38:07.118Z,5.20
2018-10-06T08:39:07.173Z,5.50
2018-10-06T08:40:07.236Z,5.30
2018-10-06T08:41:07.291Z,5.40
2018-10-06T08:42:07.351Z,5.40
2018-10-06T08:43:07.411Z,5.40
2018-10-06T08:44:07.475Z,4.90
2018-10-06T08:45:07.532Z,4.90
2018-10-06T08:46:07.589Z,4.80
2018-10-06T08:47:07.650Z,5.30
2018-10-06T08:48:07.709Z,5.00
2018-10-06T08:49:07.769Z,5.40
2018-10-06T08:50:07.834Z,5.50
2018-10-06T08:51:07.891Z,5.40
2018-10-06T08:52:07.948Z,5.50
2018-10-06T08:53:08.007Z,5.30
2018-10-06T08:54:08.070Z,5.30
2018-10-06T08:55:08.126Z,4.90
2018-10-06T08:56:08.315Z,5.20
2018-10-06T08:57:08.244Z,5.00
2018-10-06T08:58:08.305Z,5.60
2018-10-06T08:59:08.363Z,5.30
2018-10-06T09:00:08.427Z,4.90
2018-10-06T09:01:08.483Z,5.30
2018-10-06T09:02:08.543Z,5.40
2018-10-06T09:03:08.602Z,5.00
2018-10-06T09:04:08.690Z,4.50
2018-10-06T09:05:08.720Z,4.90
2018-10-06T09:06:08.781Z,5.20
2018-10-06T09:07:08.839Z,4.90
2018-10-06T09:08:08.899Z,4.50
2018-10-06T09:09:08.958Z,4.60
2018-10-06T09:10:09.019Z,4.70
2018-10-06T09:11:09.078Z,4.60
2018-10-06T09:12:09.141Z,4.60
2018-10-06T09:13:09.198Z,5.10
2018-10-06T09:14:09.265Z,4.80
2018-10-06T09:15:09.315Z,5.00
2018-10-06T09:16:09.376Z,4.90
2018-10-06T09:17:09.797Z,4.70
2018-10-06T09:18:09.497Z,5.20
2018-10-06T09:19:09.557Z,5.10
2018-10-06T09:20:09.622Z,4.90
2018-10-06T09:21:09.672Z,4.80
2018-10-06T09:22:09.733Z,4.70
2018-10-06T09:23:09.807Z,4.30
2018-10-06T09:24:09.852Z,4.70
2018-10-06T09:25:09.911Z,4.40
2018-10-06T09:26:09.970Z,4.80
2018-10-06T09:27:10.033Z,4.80
2018-10-06T09:28:10.127Z,5.00
2018-10-06T09:29:10.151Z,4.80
2018-10-06T09:30:10.217Z,4.70
2018-10-06T09:31:10.270Z,4.70
2018-10-06T09:32:10.331Z,5.00
2018-10-06T09:33:10.909Z,4.80
2018-10-06T09:34:10.450Z,5.00
2018-10-06T09:35:10.517Z,4.70
2018-10-06T09:36:10.571Z,4.60
2018-10-06T09:37:10.630Z,4.80
2018-10-06T09:38:10.689Z,4.80
2018-10-06T09:39:10.749Z,5.20
2018-10-06T09:40:10.810Z,5.20
2018-10-06T09:41:10.871Z,4.50
2018-10-06T09:42:11.082Z,4.60
2018-10-06T09:43:10.989Z,5.00
2018-10-06T09:44:11.062Z,4.70
2018-10-06T09:45:11.115Z,4.40
2018-10-06T09:46:11.170Z,4.30
2018-10-06T09:47:11.231Z,4.80
2018-10-06T09:48:11.379Z,5.10
2018-10-06T09:49:11.351Z,4.60
2018-10-06T09:50:11.430Z,4.50
2018-10-06T09:51:11.474Z,4.60
2018-10-06T09:52:11.533Z,4.70
2018-10-06T09:53:11.594Z,4.50
2018-10-06T09:54:11.825Z,4.40
2018-10-06T09:55:11.715Z,4.40
2018-10-06T09:56:11.775Z,4.60
2018-10-06T09:57:11.835Z,4.50
2018-10-06T09:58:11.895Z,4.30
2018-10-06T09:59:11.957Z,4.60
2018-10-06T10:00:12.017Z,4.10
2018-10-06T10:01:12.077Z,4.70
2018-10-06T10:02:12.138Z,4.80
2018-10-06T10:03:12.200Z,4.60
2018-10-06T10:04:12.260Z,4.30
2018-10-06T10:05:12.362Z,4.20
2018-10-06T10:06:12.381Z,4.70
2018-10-06T10:07:12.442Z,4.40
2018-10-06T10:08:12.516Z,4.40
2018-10-06T10:09:12.573Z,4.20
2018-10-06T10:10:12.626Z,4.00
2018-10-06T10:11:12.687Z,4.40
2018-10-06T10:12:12.748Z,4.10
2018-10-06T10:13:12.808Z,4.00
2018-10-06T10:14:12.877Z,4.00
2018-10-06T10:15:12.968Z,3.60
2018-10-06T10:16:12.993Z,4.40
2018-10-06T10:17:13.194Z,3.80
2018-10-06T10:18:13.253Z,4.00
2018-10-06T10:19:13.176Z,4.10
2018-10-06T10:20:13.239Z,4.30
2018-10-06T10:21:13.300Z,3.90
2018-10-06T10:22:13.405Z,4.00
2018-10-06T10:23:13.470Z,3.90
2018-10-06T10:24:13.485Z,4.40
2018-10-06T10:25:13.546Z,4.10
2018-10-06T10:26:13.607Z,4.30
2018-10-06T10:27:13.669Z,3.60
2018-10-06T10:28:13.779Z,4.20
2018-10-06T10:29:13.792Z,3.80
2018-10-06T10:30:13.855Z,3.90
2018-10-06T10:31:13.917Z,4.00
2018-10-06T10:32:13.980Z,4.20
2018-10-06T10:33:14.041Z,4.00
2018-10-06T10:34:14.356Z,4.40
2018-10-06T10:35:14.166Z,4.20
2018-10-06T10:36:14.229Z,4.40
2018-10-06T10:37:14.349Z,4.30
2018-10-06T10:38:14.358Z,4.50
2018-10-06T10:39:14.426Z,3.70
2018-10-06T10:40:14.490Z,3.90
2018-10-06T10:41:14.541Z,3.80
2018-10-06T10:42:14.604Z,4.30
2018-10-06T10:43:14.668Z,3.80
2018-10-06T10:44:14.786Z,3.70
2018-10-06T10:45:14.793Z,3.90
2018-10-06T10:46:14.855Z,3.80
2018-10-06T10:47:14.922Z,3.80
2018-10-06T10:48:15.072Z,4.10
2018-10-06T10:49:15.049Z,3.90
2018-10-06T10:50:15.108Z,3.80
2018-10-06T10:51:15.175Z,3.80
2018-10-06T10:52:15.235Z,4.40
2018-10-06T10:53:15.296Z,3.90
2018-10-06T10:54:15.361Z,3.80
2018-10-06T10:55:15.424Z,3.80
2018-10-06T10:56:15.488Z,3.80
2018-10-06T10:57:15.550Z,4.10
2018-10-06T10:58:15.615Z,3.80
2018-10-06T10:59:15.679Z,3.60
2018-10-06T11:00:15.864Z,3.20
2018-10-06T11:01:15.893Z,3.20
2018-10-06T11:02:15.870Z,3.50
2018-10-06T11:03:15.936Z,3.60
2018-10-06T11:04:16.001Z,4.10
2018-10-06T11:05:16.066Z,3.00
2018-10-06T11:06:16.131Z,3.40
2018-10-06T11:07:16.197Z,2.90
2018-10-06T11:08:16.263Z,3.40
2018-10-06T11:09:16.327Z,2.90
2018-10-06T11:10:16.393Z,2.80
2018-10-06T11:11:16.516Z,3.20
2018-10-06T11:12:16.526Z,3.00
2018-10-06T11:13:16.591Z,2.60
2018-10-06T11:14:16.659Z,2.80
2018-10-06T11:15:16.724Z,2.60
2018-10-06T11:16:16.792Z,2.80
2018-10-06T11:17:16.983Z,3.20
2018-10-06T11:18:16.924Z,3.00
2018-10-06T11:19:16.991Z,3.00
2018-10-06T11:20:17.070Z,3.10
2018-10-06T11:21:17.125Z,2.90
2018-10-06T11:22:17.195Z,2.70
2018-10-06T11:23:17.260Z,2.90
2018-10-06T11:24:17.342Z,2.90
2018-10-06T11:25:17.394Z,3.00
2018-10-06T11:26:17.463Z,3.20
2018-10-06T11:27:17.530Z,2.90
2018-10-06T11:28:17.599Z,2.80
2018-10-06T11:29:17.665Z,2.80
2018-10-06T11:30:17.732Z,3.20
2018-10-06T11:31:17.800Z,2.80
2018-10-06T11:32:17.868Z,3.20
2018-10-06T11:33:17.936Z,3.00
2018-10-06T11:34:18.005Z,3.00
2018-10-06T11:35:18.071Z,2.80
2018-10-06T11:36:18.140Z,3.10
2018-10-06T11:37:18.289Z,3.00
2018-10-06T11:38:18.363Z,2.90
2018-10-06T11:39:18.345Z,2.80
2018-10-06T11:40:18.411Z,2.80
2018-10-06T11:41:18.479Z,3.00
2018-10-06T11:42:18.546Z,3.50
2018-10-06T11:43:18.615Z,2.90
2018-10-06T11:44:18.684Z,2.70
2018-10-06T11:45:18.751Z,3.40
2018-10-06T11:46:18.821Z,3.30
2018-10-06T11:47:18.887Z,3.10
2018-10-06T11:48:18.955Z,2.80
2018-10-06T11:49:19.022Z,3.10
2018-10-06T11:50:19.171Z,2.90
2018-10-06T11:51:19.549Z,3.00
2018-10-06T11:52:19.233Z,3.00
2018-10-06T11:53:19.294Z,2.80
2018-10-06T11:54:19.362Z,3.00
2018-10-06T11:55:19.431Z,3.00
2018-10-06T11:56:19.873Z,3.10
2018-10-06T11:57:19.566Z,3.00
2018-10-06T11:58:19.633Z,3.00
2018-10-06T11:59:19.700Z,3.20
2018-10-06T12:00:19.942Z,3.20
2018-10-06T12:01:20.184Z,2.90
2018-10-06T12:02:19.904Z,3.30
2018-10-06T12:03:19.973Z,3.20
2018-10-06T12:04:20.042Z,2.90
2018-10-06T12:05:20.108Z,3.40
2018-10-06T12:06:20.179Z,3.10
2018-10-06T12:07:20.244Z,3.70
2018-10-06T12:08:20.312Z,3.50
2018-10-06T12:09:20.378Z,3.10
2018-10-06T12:10:20.453Z,2.90
2018-10-06T12:11:20.513Z,2.90
2018-10-06T12:12:20.581Z,2.90
2018-10-06T12:13:20.647Z,2.80
2018-10-06T12:14:20.715Z,2.90
2018-10-06T12:15:20.783Z,2.90
2018-10-06T12:16:20.848Z,3.30
2018-10-06T12:17:20.915Z,3.40
2018-10-06T12:18:20.989Z,3.00
2018-10-06T12:19:21.052Z,3.20
2018-10-06T12:20:21.147Z,3.10
2018-10-06T12:21:21.185Z,3.30
2018-10-06T12:22:21.252Z,3.60
2018-10-06T12:23:21.319Z,3.00
2018-10-06T12:24:21.387Z,3.00
2018-10-06T12:25:21.452Z,3.40
2018-10-06T12:26:21.519Z,2.80
2018-10-06T12:27:21.587Z,2.80
2018-10-06T12:28:21.653Z,3.20
2018-10-06T12:29:21.719Z,2.80
2018-10-06T12:30:21.787Z,2.90
2018-10-06T12:31:21.854Z,3.10
2018-10-06T12:32:21.920Z,3.50
2018-10-06T12:33:21.987Z,3.30
2018-10-06T12:34:22.056Z,3.20
2018-10-06T12:35:22.206Z,3.10
2018-10-06T12:36:22.186Z,3.10
2018-10-06T12:37:22.251Z,3.00
2018-10-06T12:38:22.318Z,3.20
2018-10-06T12:39:22.384Z,2.90
2018-10-06T12:40:22.451Z,3.20
2018-10-06T12:41:22.517Z,3.20
2018-10-06T12:42:22.582Z,3.00
2018-10-06T12:43:22.649Z,3.00
2018-10-06T12:44:22.715Z,2.90
2018-10-06T12:45:22.780Z,3.00
2018-10-06T12:46:22.847Z,3.00
2018-10-06T12:47:22.914Z,3.20
2018-10-06T12:48:22.979Z,3.30
2018-10-06T12:49:23.045Z,2.90
2018-10-06T12:50:23.111Z,3.00
2018-10-06T12:51:23.187Z,3.20
2018-10-06T12:52:23.245Z,3.10
2018-10-06T12:53:23.794Z,3.20
2018-10-06T12:54:23.376Z,3.00
2018-10-06T12:55:23.444Z,2.90
2018-10-06T12:56:23.535Z,3.20
2018-10-06T12:57:23.575Z,3.00
2018-10-06T12:58:23.642Z,3.00
2018-10-06T12:59:23.711Z,3.40
2018-10-06T13:00:23.776Z,2.90
2018-10-06T13:01:23.841Z,3.00
2018-10-06T13:02:23.908Z,3.00
2018-10-06T13:03:23.975Z,3.30
2018-10-06T13:04:24.042Z,2.80
2018-10-06T13:05:24.110Z,3.20
2018-10-06T13:06:24.175Z,3.10
2018-10-06T13:07:24.257Z,3.20
2018-10-06T13:08:24.310Z,2.90
2018-10-06T13:09:24.376Z,2.80
2018-10-06T13:10:24.447Z,3.00
2018-10-06T13:11:24.511Z,2.90
2018-10-06T13:12:24.578Z,2.60
2018-10-06T13:13:24.645Z,3.10
2018-10-06T13:14:24.714Z,2.60
2018-10-06T13:15:24.781Z,2.90
2018-10-06T13:16:24.848Z,2.90
2018-10-06T13:17:24.916Z,3.10
2018-10-06T13:18:24.984Z,3.20
2018-10-06T13:19:25.054Z,3.00